Time;durP1;ratioP1;P1;durP2;ratioP2;P2;SDS_P1;SDS_P2;PMS_P1;PMS_P2;Temp;Humidity;BMP_temperature;BMP_pressure;BME280_temperature;BME280_humidity;BME280_pressure;Samples;Min_cycle;Max_cycle;Signal;HPM_P1;HPM_P2
2022/12/03 00:01:42;;;;;;;46.13;24.20;;;2.50;99.90;;;;;;5054601;28;20799;-45
2022/12/03 00:04:08;;;;;;;43.92;25.45;;;2.60;99.90;;;;;;5056534;28;20074;-45
2022/12/03 00:06:33;;;;;;;47.08;26.17;;;2.50;99.90;;;;;;5055623;28;20052;-43
2022/12/03 00:08:59;;;;;;;41.75;24.00;;;2.50;99.90;;;;;;5056697;28;20632;-44
2022/12/03 00:11:25;;;;;;;44.78;24.45;;;2.50;99.90;;;;;;5054932;28;20059;-48
2022/12/03 00:13:50;;;;;;;47.25;25.50;;;2.50;99.90;;;;;;5054766;28;20447;-46
2022/12/03 00:16:16;;;;;;;45.67;24.70;;;2.50;99.90;;;;;;5055722;28;20166;-46
2022/12/03 00:18:42;;;;;;;43.30;24.45;;;2.50;99.90;;;;;;5054960;28;20127;-46
2022/12/03 00:21:07;;;;;;;44.75;23.88;;;2.50;99.90;;;;;;5053584;28;20052;-47
2022/12/03 00:23:33;;;;;;;42.83;23.92;;;2.50;99.90;;;;;;5055486;28;20054;-46
2022/12/03 00:25:59;;;;;;;41.10;21.63;;;2.50;99.90;;;;;;5056051;28;20067;-46
2022/12/03 00:28:24;;;;;;;43.03;24.75;;;2.50;99.90;;;;;;5056508;28;20156;-42
2022/12/03 00:30:52;;;;;;;41.42;23.17;;;2.50;99.90;;;;;;5055645;28;20045;-46
2022/12/03 00:33:19;;;;;;;38.30;22.52;;;2.50;99.90;;;;;;5055862;28;20056;-46
2022/12/03 00:35:45;;;;;;;39.83;23.80;;;2.50;99.90;;;;;;5055244;28;20127;-42
2022/12/03 00:38:10;;;;;;;43.10;22.65;;;2.50;99.90;;;;;;5067376;28;20061;-45
2022/12/03 00:40:36;;;;;;;39.00;21.40;;;2.50;99.90;;;;;;5054899;28;20060;-43
2022/12/03 00:43:02;;;;;;;39.25;21.33;;;2.60;99.90;;;;;;5046977;28;20437;-43
2022/12/03 00:45:28;;;;;;;37.72;20.45;;;2.60;99.90;;;;;;5055035;28;20457;-45
2022/12/03 00:47:53;;;;;;;36.17;21.10;;;2.60;99.90;;;;;;5056201;28;20097;-46
2022/12/03 00:50:19;;;;;;;37.30;20.88;;;2.60;99.90;;;;;;5054152;28;20633;-42
2022/12/03 00:52:45;;;;;;;36.55;21.02;;;2.70;99.90;;;;;;5048823;28;20512;-46
2022/12/03 00:55:10;;;;;;;35.95;19.75;;;2.70;99.90;;;;;;5052084;28;20048;-46
2022/12/03 00:57:36;;;;;;;38.38;21.08;;;2.70;99.90;;;;;;5055610;28;20048;-43
2022/12/03 01:00:04;;;;;;;36.28;19.88;;;2.70;99.90;;;;;;5055722;28;20479;-46
2022/12/03 01:02:30;;;;;;;33.65;18.90;;;2.70;99.90;;;;;;5055073;28;20220;-45
2022/12/03 01:04:55;;;;;;;34.78;19.40;;;2.80;99.90;;;;;;5055067;28;20040;-48
2022/12/03 01:07:21;;;;;;;33.50;20.00;;;2.80;99.90;;;;;;5055598;28;20055;-44
2022/12/03 01:09:47;;;;;;;32.05;18.92;;;2.80;99.90;;;;;;5055972;28;20040;-43
2022/12/03 01:12:12;;;;;;;32.05;18.10;;;2.80;99.90;;;;;;5055652;28;20529;-48
2022/12/03 01:14:38;;;;;;;30.23;17.30;;;2.80;99.90;;;;;;5055571;28;20044;-42
2022/12/03 01:17:04;;;;;;;31.85;17.23;;;2.80;99.90;;;;;;5055549;28;20105;-46
2022/12/03 01:19:29;;;;;;;30.33;17.60;;;2.80;99.90;;;;;;5051249;28;20398;-45
2022/12/03 01:21:55;;;;;;;31.35;17.50;;;2.80;99.90;;;;;;5055333;28;20059;-46
2022/12/03 01:24:21;;;;;;;26.75;16.55;;;2.80;99.90;;;;;;5055149;28;20083;-44
2022/12/03 01:26:47;;;;;;;30.55;16.98;;;2.80;99.90;;;;;;5055385;28;20309;-45
2022/12/03 01:29:13;;;;;;;28.50;15.60;;;2.80;99.90;;;;;;5054809;28;20423;-45
2022/12/03 01:34:23;;;;;;;26.90;16.88;;;2.90;99.90;;;;;;5055460;28;20155;-43
2022/12/03 01:36:51;;;;;;;23.98;15.38;;;3.00;99.90;;;;;;5054611;28;20373;-44
2022/12/03 01:39:17;;;;;;;24.23;16.10;;;3.10;99.90;;;;;;5051361;28;20552;-44
2022/12/03 01:41:43;;;;;;;24.08;15.65;;;3.10;99.90;;;;;;5054641;28;20044;-45
2022/12/03 01:44:30;;;;;;;23.33;14.48;;;3.20;99.90;;;;;;5055876;28;20411;-42
2022/12/03 01:46:57;;;;;;;24.33;15.50;;;3.20;99.90;;;;;;5055307;28;20087;-43
2022/12/03 01:50:04;;;;;;;20.58;14.95;;;3.30;99.90;;;;;;5054168;28;20411;-43
2022/12/03 01:52:37;;;;;;;23.33;16.38;;;3.30;99.90;;;;;;5019411;28;20583;-43
2022/12/03 01:55:10;;;;;;;21.93;15.00;;;3.40;99.90;;;;;;5007389;28;20061;-47
2022/12/03 01:57:50;;;;;;;22.00;15.43;;;3.40;99.90;;;;;;5012540;28;20288;-44
2022/12/03 02:00:22;;;;;;;21.75;14.35;;;3.40;99.90;;;;;;5011656;28;20269;-43
2022/12/03 02:02:51;;;;;;;24.55;15.60;;;3.40;99.90;;;;;;5008223;28;20061;-46
2022/12/03 02:05:22;;;;;;;22.70;14.38;;;3.50;99.90;;;;;;5032025;28;20056;-45
2022/12/03 02:07:49;;;;;;;22.25;14.65;;;3.50;99.90;;;;;;5017351;28;20053;-45
2022/12/03 02:10:17;;;;;;;21.83;15.00;;;3.50;99.90;;;;;;4993019;28;20197;-49
2022/12/03 02:12:48;;;;;;;22.77;14.85;;;3.60;99.90;;;;;;5006554;28;20053;-47
2022/12/03 02:15:14;;;;;;;22.95;15.23;;;3.60;99.90;;;;;;5011881;28;20057;-45
2022/12/03 02:17:41;;;;;;;24.55;15.30;;;3.60;99.90;;;;;;5000662;28;20057;-44
2022/12/03 02:20:09;;;;;;;22.92;15.25;;;3.60;99.90;;;;;;5022485;28;20126;-46
2022/12/03 02:23:01;;;;;;;23.92;15.18;;;3.70;99.90;;;;;;4998825;28;20123;-43
2022/12/03 02:25:31;;;;;;;22.98;15.63;;;3.70;99.90;;;;;;5015015;28;20048;-47
2022/12/03 02:27:57;;;;;;;23.70;16.10;;;3.70;99.90;;;;;;5020908;28;20057;-41
2022/12/03 02:30:25;;;;;;;24.48;15.73;;;3.70;99.90;;;;;;5059129;28;20560;-45
2022/12/03 02:32:52;;;;;;;24.77;15.95;;;3.60;99.90;;;;;;5058356;28;20056;-45
2022/12/03 02:35:20;;;;;;;23.80;15.88;;;3.60;99.90;;;;;;5057871;28;20053;-45
2022/12/03 02:37:51;;;;;;;26.88;16.95;;;3.50;99.90;;;;;;5058032;28;20058;-43
2022/12/03 02:40:23;;;;;;;24.52;16.30;;;3.50;99.90;;;;;;5058312;28;20056;-42
2022/12/03 02:42:51;;;;;;;25.33;16.10;;;3.40;99.90;;;;;;5057479;28;20098;-47
2022/12/03 02:45:22;;;;;;;24.33;17.35;;;3.40;99.90;;;;;;5057329;28;20090;-46
2022/12/03 02:47:57;;;;;;;23.08;16.33;;;3.30;99.90;;;;;;5057799;28;20049;-41
2022/12/03 02:50:34;;;;;;;25.83;16.67;;;3.30;99.90;;;;;;5057521;28;20052;-44
2022/12/03 02:53:03;;;;;;;26.90;17.75;;;3.20;99.90;;;;;;5048443;28;20045;-45
2022/12/03 02:55:31;;;;;;;24.48;17.17;;;3.20;99.90;;;;;;5056080;28;20044;-45
2022/12/03 02:57:57;;;;;;;26.17;16.30;;;3.20;99.90;;;;;;5058320;28;20052;-48
2022/12/03 03:00:23;;;;;;;24.42;16.35;;;3.20;99.90;;;;;;5054258;28;20537;-47
2022/12/03 03:02:49;;;;;;;25.38;16.77;;;3.20;99.90;;;;;;5053872;28;20079;-41
2022/12/03 03:05:19;;;;;;;24.85;17.30;;;3.20;99.90;;;;;;5055840;28;20053;-45
2022/12/03 03:07:45;;;;;;;25.52;17.48;;;3.20;99.90;;;;;;5054574;28;20395;-48
2022/12/03 03:10:13;;;;;;;26.05;18.95;;;3.20;99.90;;;;;;5057593;28;20182;-47
2022/12/03 03:12:40;;;;;;;25.77;17.45;;;3.20;99.90;;;;;;5057061;28;20152;-43
2022/12/03 03:15:08;;;;;;;28.00;17.98;;;3.30;99.90;;;;;;5057469;28;20040;-44
2022/12/03 03:17:34;;;;;;;26.20;17.67;;;3.20;99.90;;;;;;5057685;28;20052;-43
2022/12/03 03:19:59;;;;;;;28.23;17.65;;;3.30;99.90;;;;;;5052292;28;20190;-45
2022/12/03 03:22:36;;;;;;;26.25;17.48;;;3.30;99.90;;;;;;5057589;28;20086;-45
2022/12/03 03:25:03;;;;;;;24.83;16.85;;;3.30;99.90;;;;;;5056595;28;20949;-47
2022/12/03 03:27:29;;;;;;;28.27;19.38;;;3.30;99.90;;;;;;5057192;28;20156;-43
2022/12/03 03:29:57;;;;;;;23.98;17.40;;;3.30;99.90;;;;;;5056525;28;20148;-48
2022/12/03 03:32:23;;;;;;;27.00;18.35;;;3.30;99.90;;;;;;5057693;28;20066;-47
2022/12/03 03:34:49;;;;;;;26.13;17.90;;;3.30;99.90;;;;;;5057162;28;20048;-42
2022/12/03 03:37:15;;;;;;;25.40;17.25;;;3.30;99.90;;;;;;5056916;28;20058;-44
2022/12/03 03:39:40;;;;;;;26.20;17.40;;;3.30;99.90;;;;;;5057074;28;20040;-49
2022/12/03 03:42:08;;;;;;;24.67;17.80;;;3.30;99.90;;;;;;5044313;28;20060;-42
2022/12/03 03:44:34;;;;;;;27.60;18.13;;;3.30;99.90;;;;;;5057323;28;20133;-43
2022/12/03 03:47:01;;;;;;;27.48;16.88;;;3.30;99.90;;;;;;5056616;28;20044;-45
2022/12/03 03:49:27;;;;;;;26.33;17.83;;;3.30;99.90;;;;;;5057734;28;20529;-42
2022/12/03 03:51:53;;;;;;;27.80;17.70;;;3.20;99.90;;;;;;5056627;28;20040;-46
2022/12/03 03:54:19;;;;;;;25.38;17.63;;;3.30;99.90;;;;;;5056484;28;20097;-42
2022/12/03 03:56:45;;;;;;;29.35;18.23;;;3.30;99.90;;;;;;5056212;28;20518;-44
2022/12/03 03:59:12;;;;;;;26.58;17.20;;;3.30;99.90;;;;;;5056519;28;20044;-47
2022/12/03 04:01:38;;;;;;;26.10;18.20;;;3.30;99.90;;;;;;5056318;28;20056;-44
2022/12/03 04:04:11;;;;;;;27.58;18.15;;;3.20;99.90;;;;;;5054828;28;20114;-42
2022/12/03 04:06:37;;;;;;;26.23;17.67;;;3.20;99.90;;;;;;5054316;28;20578;-42
2022/12/03 04:09:02;;;;;;;28.08;18.95;;;3.20;99.90;;;;;;5055647;28;20048;-45
2022/12/03 04:14:12;;;;;;;29.55;18.05;;;3.20;99.90;;;;;;5056663;28;20048;-44
2022/12/03 04:16:38;;;;;;;28.55;18.10;;;3.20;99.90;;;;;;5056329;28;20403;-45
2022/12/03 04:19:03;;;;;;;22.95;16.15;;;3.20;99.90;;;;;;5051571;28;20511;-41
2022/12/03 04:24:13;;;;;;;26.48;17.48;;;3.20;99.90;;;;;;5055748;28;20091;-46
2022/12/03 04:29:23;;;;;;;26.30;17.60;;;3.30;99.90;;;;;;5056391;28;20102;-43
2022/12/03 04:37:18;;;;;;;26.30;17.80;;;3.20;99.90;;;;;;5056215;28;20479;-45
2022/12/03 04:39:44;;;;;;;25.67;17.95;;;3.20;99.90;;;;;;5056048;28;20072;-41
2022/12/03 04:42:09;;;;;;;25.55;18.08;;;3.20;99.90;;;;;;5055846;28;20060;-44
2022/12/03 04:44:35;;;;;;;25.23;17.05;;;3.20;99.90;;;;;;5056366;28;20398;-45
2022/12/03 04:47:07;;;;;;;26.60;18.08;;;3.20;99.90;;;;;;5055486;28;20064;-42
2022/12/03 04:49:51;;;;;;;27.05;17.75;;;3.20;99.90;;;;;;5013601;28;20057;-46
2022/12/03 04:52:19;;;;;;;25.17;17.27;;;3.20;99.90;;;;;;5009979;28;20381;-46
2022/12/03 04:54:45;;;;;;;28.00;18.70;;;3.20;99.90;;;;;;5005357;28;20140;-43
2022/12/03 04:57:11;;;;;;;24.85;16.60;;;3.20;99.90;;;;;;4996806;28;20441;-46
2022/12/03 04:59:37;;;;;;;24.05;16.88;;;3.10;99.90;;;;;;5012443;28;20132;-46
2022/12/03 05:02:04;;;;;;;24.08;17.05;;;3.10;99.90;;;;;;5010534;28;20108;-42
2022/12/03 05:04:30;;;;;;;23.88;16.25;;;3.10;99.90;;;;;;5011212;28;20111;-45
2022/12/03 05:06:56;;;;;;;27.00;17.02;;;3.10;99.90;;;;;;5010711;28;20061;-45
2022/12/03 05:09:22;;;;;;;26.95;18.42;;;3.10;99.90;;;;;;4997056;28;20524;-50
2022/12/03 05:11:48;;;;;;;26.67;17.80;;;3.10;99.90;;;;;;5011862;28;20061;-46
2022/12/03 05:14:13;;;;;;;26.75;17.48;;;3.10;99.90;;;;;;5012154;28;20053;-47
2022/12/03 05:16:39;;;;;;;25.58;18.05;;;3.10;99.90;;;;;;5012029;28;20487;-43
2022/12/03 05:19:06;;;;;;;23.08;16.02;;;3.10;99.90;;;;;;5007881;28;20762;-45
2022/12/03 05:21:32;;;;;;;26.75;17.35;;;3.10;99.90;;;;;;5012123;28;20089;-47
2022/12/03 05:23:58;;;;;;;26.77;17.05;;;3.10;99.90;;;;;;5012709;28;20215;-44
2022/12/03 05:26:23;;;;;;;29.05;18.67;;;3.10;99.90;;;;;;5023637;28;20091;-43
2022/12/03 05:28:49;;;;;;;26.40;18.73;;;3.00;99.90;;;;;;5054536;28;20052;-41
2022/12/03 05:31:15;;;;;;;25.00;17.98;;;3.10;99.90;;;;;;5055308;28;20132;-45
2022/12/03 05:33:41;;;;;;;26.45;17.77;;;3.10;99.90;;;;;;5055554;28;20048;-42
2022/12/03 05:36:07;;;;;;;27.70;17.55;;;3.10;99.90;;;;;;5055343;28;20052;-49
2022/12/03 05:38:33;;;;;;;26.23;17.58;;;3.10;99.90;;;;;;5055273;28;20044;-49
2022/12/03 05:40:59;;;;;;;29.13;17.80;;;3.10;99.90;;;;;;5054505;28;20048;-41
2022/12/03 05:43:24;;;;;;;27.73;17.10;;;3.10;99.90;;;;;;5054623;28;20408;-42
2022/12/03 05:45:50;;;;;;;26.83;18.10;;;3.10;99.90;;;;;;5053507;28;20106;-43
2022/12/03 05:48:16;;;;;;;26.45;16.75;;;3.10;99.90;;;;;;5053727;28;20064;-43
2022/12/03 05:50:43;;;;;;;28.92;17.90;;;3.10;99.90;;;;;;5054556;28;20095;-47
2022/12/03 05:53:13;;;;;;;29.60;17.80;;;3.10;99.90;;;;;;5058376;28;20092;-46
2022/12/03 05:55:39;;;;;;;30.80;19.00;;;3.10;99.90;;;;;;5056719;28;20487;-43
2022/12/03 05:58:05;;;;;;;27.58;18.65;;;3.10;99.90;;;;;;5058140;28;20044;-44
2022/12/03 06:00:36;;;;;;;27.33;18.65;;;3.10;99.90;;;;;;5057322;28;20535;-44
2022/12/03 06:03:03;;;;;;;26.55;17.90;;;3.10;99.90;;;;;;5058226;28;20186;-44
2022/12/03 06:05:29;;;;;;;25.88;17.65;;;3.00;99.90;;;;;;5058493;28;20055;-48
2022/12/03 06:07:54;;;;;;;26.20;18.35;;;3.10;99.90;;;;;;5058912;28;20410;-44
2022/12/03 06:10:23;;;;;;;25.92;18.70;;;3.10;99.90;;;;;;5058283;28;20052;-44
2022/12/03 06:12:48;;;;;;;27.45;18.52;;;3.10;99.90;;;;;;5057358;28;20592;-44
2022/12/03 06:15:14;;;;;;;25.80;17.85;;;3.10;99.90;;;;;;5058439;28;20051;-41
2022/12/03 06:17:41;;;;;;;26.38;17.65;;;3.00;99.90;;;;;;5057497;28;20095;-41
2022/12/03 06:20:09;;;;;;;28.88;16.92;;;3.10;99.90;;;;;;5053886;28;20091;-44
2022/12/03 06:22:34;;;;;;;31.58;19.13;;;3.10;99.90;;;;;;5058114;28;20052;-46
2022/12/03 06:25:00;;;;;;;26.55;17.48;;;3.10;99.90;;;;;;5057629;28;20114;-45
2022/12/03 06:27:25;;;;;;;28.50;18.50;;;3.00;99.90;;;;;;5058417;28;20055;-45
2022/12/03 06:29:51;;;;;;;28.98;18.27;;;3.10;99.90;;;;;;5058154;28;20063;-42
2022/12/03 06:32:17;;;;;;;27.95;18.10;;;3.10;99.90;;;;;;5057662;28;21003;-44
2022/12/03 06:34:42;;;;;;;25.80;16.75;;;3.00;99.90;;;;;;5058391;28;20145;-46
2022/12/03 06:37:08;;;;;;;27.75;18.67;;;3.00;99.90;;;;;;5058577;28;20049;-45
2022/12/03 06:39:34;;;;;;;29.67;18.60;;;3.00;99.90;;;;;;5057822;28;20052;-41
2022/12/03 06:41:59;;;;;;;28.48;19.10;;;3.00;99.90;;;;;;5057233;28;20052;-46
2022/12/03 06:44:25;;;;;;;30.60;18.70;;;3.00;99.90;;;;;;5058985;28;20044;-45
2022/12/03 06:46:51;;;;;;;26.35;17.35;;;3.00;99.90;;;;;;5056102;28;20063;-44
2022/12/03 06:49:16;;;;;;;26.17;16.50;;;3.00;99.90;;;;;;5057036;28;20654;-44
2022/12/03 06:51:42;;;;;;;29.27;18.80;;;3.00;99.90;;;;;;5057267;28;20056;-42
2022/12/03 06:54:08;;;;;;;26.13;17.42;;;3.00;99.90;;;;;;5047561;28;20850;-46
2022/12/03 06:56:33;;;;;;;27.92;18.48;;;3.00;99.90;;;;;;5057394;28;20055;-44
2022/12/03 06:58:59;;;;;;;28.77;18.00;;;3.00;99.90;;;;;;5057440;28;20051;-43
2022/12/03 07:01:25;;;;;;;26.25;18.35;;;2.90;99.90;;;;;;5057650;28;20453;-43
2022/12/03 07:03:51;;;;;;;28.10;18.40;;;2.90;99.90;;;;;;5055620;28;20457;-46
2022/12/03 07:06:16;;;;;;;26.15;17.92;;;2.90;99.90;;;;;;5057682;28;20159;-41
2022/12/03 07:08:42;;;;;;;27.15;17.98;;;2.90;99.90;;;;;;5057398;28;20051;-49
2022/12/03 07:13:52;;;;;;;28.75;17.25;;;2.90;99.90;;;;;;5058165;28;20063;-44
2022/12/03 07:16:18;;;;;;;27.67;18.52;;;2.90;99.90;;;;;;5057396;28;20068;-45
2022/12/03 07:18:44;;;;;;;29.00;18.55;;;2.80;99.90;;;;;;5055819;28;20052;-45
2022/12/03 07:21:09;;;;;;;28.90;17.98;;;2.80;99.90;;;;;;5054253;28;20543;-42
2022/12/03 07:23:35;;;;;;;27.52;16.98;;;2.80;99.90;;;;;;5057037;28;20044;-45
2022/12/03 07:26:00;;;;;;;26.65;16.88;;;2.80;99.90;;;;;;5056951;28;20047;-48
2022/12/03 07:28:26;;;;;;;29.02;18.50;;;2.80;99.90;;;;;;5057442;28;20482;-45
2022/12/03 07:30:52;;;;;;;26.73;17.80;;;2.80;99.90;;;;;;5055712;28;20159;-45
2022/12/03 07:33:17;;;;;;;26.98;17.52;;;2.80;99.90;;;;;;5057376;28;20048;-44
2022/12/03 07:35:43;;;;;;;26.73;16.73;;;2.80;99.90;;;;;;5056318;28;20311;-47
2022/12/03 07:38:09;;;;;;;28.02;16.88;;;2.80;99.90;;;;;;5055394;28;20056;-46
2022/12/03 07:40:34;;;;;;;28.08;16.77;;;2.80;99.90;;;;;;5054556;28;20415;-43
2022/12/03 07:43:00;;;;;;;29.02;18.63;;;2.80;99.90;;;;;;5055880;28;20048;-46
2022/12/03 07:45:25;;;;;;;26.70;17.27;;;2.70;99.90;;;;;;5053645;28;20695;-47
2022/12/03 07:47:51;;;;;;;26.65;17.77;;;2.70;99.90;;;;;;5056167;28;20044;-48
2022/12/03 07:50:17;;;;;;;31.98;19.35;;;2.70;99.90;;;;;;5056265;28;20113;-45
2022/12/03 07:52:42;;;;;;;28.48;17.75;;;2.80;99.90;;;;;;5056173;28;20450;-45
2022/12/03 07:55:10;;;;;;;27.90;18.10;;;2.80;99.90;;;;;;5056582;28;20051;-42
2022/12/03 07:57:36;;;;;;;32.83;20.23;;;2.80;99.90;;;;;;5056954;28;20045;-48
2022/12/03 08:00:04;;;;;;;28.45;18.27;;;2.70;99.90;;;;;;5055328;28;20063;-46
2022/12/03 08:02:29;;;;;;;28.50;19.10;;;2.70;99.90;;;;;;5055975;28;20052;-50
2022/12/03 08:04:55;;;;;;;30.58;18.65;;;2.80;99.90;;;;;;5055996;28;20044;-52
2022/12/03 08:07:21;;;;;;;29.70;17.83;;;2.70;99.90;;;;;;5056152;28;20063;-46
2022/12/03 08:09:46;;;;;;;33.15;19.17;;;2.70;99.90;;;;;;5055719;28;20438;-44
2022/12/03 08:12:50;;;;;;;31.30;19.88;;;2.70;99.90;;;;;;5055286;28;20490;-45
2022/12/03 08:15:22;;;;;;;27.95;17.88;;;2.70;99.90;;;;;;5051590;28;20143;-45
2022/12/03 08:18:04;;;;;;;30.83;19.45;;;2.70;99.90;;;;;;5055274;28;20052;-44
2022/12/03 08:20:36;;;;;;;28.85;18.42;;;2.70;99.90;;;;;;5052559;28;20161;-46
2022/12/03 08:23:10;;;;;;;27.67;18.23;;;2.70;99.90;;;;;;5054119;28;20545;-45
2022/12/03 08:25:36;;;;;;;29.92;19.38;;;2.70;99.90;;;;;;5053170;28;20033;-43
2022/12/03 08:28:11;;;;;;;30.40;18.67;;;2.70;99.90;;;;;;5055064;28;20765;-48
2022/12/03 08:30:36;;;;;;;30.08;19.25;;;2.70;99.90;;;;;;5053340;28;20103;-47
2022/12/03 08:33:26;;;;;;;31.45;20.67;;;2.70;99.90;;;;;;5056057;28;20179;-43
2022/12/03 08:35:51;;;;;;;27.92;19.13;;;2.80;99.90;;;;;;5055137;28;20692;-46
2022/12/03 08:38:21;;;;;;;29.20;19.90;;;2.70;99.90;;;;;;5054638;28;20059;-45
2022/12/03 08:40:49;;;;;;;30.85;19.33;;;2.70;99.90;;;;;;5051068;28;20376;-47
2022/12/03 08:43:23;;;;;;;31.92;20.80;;;2.70;99.90;;;;;;5056707;28;20307;-47
2022/12/03 08:45:54;;;;;;;29.20;18.35;;;2.70;99.90;;;;;;5053111;28;20120;-43
2022/12/03 08:48:25;;;;;;;31.30;19.83;;;2.70;99.90;;;;;;5054079;28;20462;-48
2022/12/03 08:50:56;;;;;;;29.85;20.25;;;2.70;99.90;;;;;;5052585;28;20536;-42
2022/12/03 08:53:34;;;;;;;30.77;19.23;;;2.70;99.90;;;;;;5036711;28;20305;-47
2022/12/03 08:56:02;;;;;;;29.80;20.45;;;2.70;99.90;;;;;;5054972;28;20094;-46
2022/12/03 08:58:31;;;;;;;32.35;21.17;;;2.60;99.90;;;;;;5055539;28;20045;-46
2022/12/03 09:01:04;;;;;;;34.65;20.67;;;2.60;99.90;;;;;;5055038;28;20362;-49
2022/12/03 09:03:31;;;;;;;28.60;19.40;;;2.60;99.90;;;;;;5055547;28;20561;-45
2022/12/03 09:05:57;;;;;;;29.52;19.38;;;2.60;99.90;;;;;;5056122;28;20048;-48
2022/12/03 09:08:22;;;;;;;32.65;21.05;;;2.60;99.90;;;;;;5056260;28;20102;-43
2022/12/03 09:10:48;;;;;;;32.50;21.38;;;2.60;99.90;;;;;;5055690;28;20414;-43
2022/12/03 09:13:14;;;;;;;31.75;21.55;;;2.60;99.90;;;;;;5055424;28;20556;-44
2022/12/03 09:15:39;;;;;;;33.90;20.73;;;2.60;99.90;;;;;;5054562;28;20040;-42
2022/12/03 09:18:05;;;;;;;31.67;21.73;;;2.60;99.90;;;;;;5054681;28;20036;-46
2022/12/03 09:20:31;;;;;;;33.30;21.63;;;2.60;99.90;;;;;;5054691;28;20044;-48
2022/12/03 09:22:56;;;;;;;33.60;20.75;;;2.60;99.90;;;;;;5055769;28;20041;-44
2022/12/03 09:25:22;;;;;;;30.20;20.77;;;2.60;99.90;;;;;;5055287;28;20036;-43
2022/12/03 09:27:48;;;;;;;34.83;22.65;;;2.60;99.90;;;;;;5060601;28;20133;-44
2022/12/03 09:30:14;;;;;;;35.00;22.15;;;2.60;99.90;;;;;;5058757;28;20047;-47
2022/12/03 09:32:40;;;;;;;33.75;21.30;;;2.60;99.90;;;;;;5056679;28;20057;-46
2022/12/03 09:35:06;;;;;;;51.90;33.10;;;2.60;99.90;;;;;;5059587;28;20043;-46
2022/12/03 09:37:32;;;;;;;48.78;34.97;;;2.60;99.90;;;;;;5059512;28;20388;-45
2022/12/03 09:39:57;;;;;;;73.00;52.50;;;2.60;99.90;;;;;;5059579;28;20048;-48
2022/12/03 09:42:24;;;;;;;54.78;40.97;;;2.60;99.90;;;;;;5045352;28;20079;-45
2022/12/03 09:44:50;;;;;;;38.70;29.00;;;2.60;99.90;;;;;;5058566;28;20474;-45
2022/12/03 09:47:16;;;;;;;41.63;28.90;;;2.60;99.90;;;;;;5058401;28;20878;-45
2022/12/03 09:49:42;;;;;;;41.40;29.15;;;2.60;99.90;;;;;;5059220;28;20044;-49
2022/12/03 09:52:15;;;;;;;41.25;30.27;;;2.60;99.90;;;;;;5058556;28;20132;-44
2022/12/03 09:54:41;;;;;;;35.25;21.95;;;2.60;99.90;;;;;;5058860;28;20044;-49
2022/12/03 09:57:13;;;;;;;46.92;34.28;;;2.60;99.90;;;;;;5058797;28;20450;-44
2022/12/03 09:59:39;;;;;;;39.17;26.50;;;2.60;99.90;;;;;;5058758;28;20060;-42
2022/12/03 10:02:21;;;;;;;36.47;22.58;;;2.60;99.90;;;;;;5057703;28;20044;-44
2022/12/03 10:04:47;;;;;;;33.40;20.70;;;2.60;99.90;;;;;;5058219;28;20121;-44
2022/12/03 10:07:13;;;;;;;34.20;23.02;;;2.60;99.90;;;;;;5058510;28;20048;-45
2022/12/03 10:09:39;;;;;;;35.85;20.77;;;2.60;99.90;;;;;;5058037;28;20044;-45
2022/12/03 10:12:08;;;;;;;32.65;21.38;;;2.60;99.90;;;;;;5057855;28;20056;-44
2022/12/03 10:14:34;;;;;;;35.85;23.00;;;2.60;99.90;;;;;;5058293;28;20052;-43
2022/12/03 10:16:59;;;;;;;33.88;21.52;;;2.60;99.90;;;;;;5058581;28;20048;-49
2022/12/03 10:19:30;;;;;;;32.28;21.02;;;2.60;99.90;;;;;;5059554;28;20712;-45
2022/12/03 10:21:56;;;;;;;33.60;21.13;;;2.60;99.90;;;;;;5059251;28;20067;-45
2022/12/03 10:24:21;;;;;;;32.53;20.48;;;2.60;99.90;;;;;;5057795;28;20392;-44
2022/12/03 10:26:49;;;;;;;32.88;20.88;;;2.60;99.90;;;;;;5056824;28;20048;-44
2022/12/03 10:29:21;;;;;;;33.53;22.00;;;2.70;99.90;;;;;;5058141;28;20058;-44
2022/12/03 10:31:58;;;;;;;37.33;22.13;;;2.70;99.90;;;;;;5056024;28;20130;-43
2022/12/03 10:34:30;;;;;;;37.53;22.45;;;2.60;99.90;;;;;;5057819;28;20044;-43
2022/12/03 10:37:12;;;;;;;37.13;22.17;;;2.60;99.90;;;;;;5058512;28;20947;-46
2022/12/03 10:39:59;;;;;;;36.17;22.60;;;2.60;99.90;;;;;;5057344;28;20562;-48
2022/12/03 10:42:28;;;;;;;34.05;21.17;;;2.50;99.90;;;;;;5048967;28;20044;-45
2022/12/03 10:45:22;;;;;;;33.50;21.58;;;2.50;99.90;;;;;;5056820;28;20051;-49
2022/12/03 10:48:10;;;;;;;39.35;24.30;;;2.40;99.90;;;;;;5013171;28;20052;-45
2022/12/03 10:50:36;;;;;;;36.78;23.60;;;2.40;99.90;;;;;;5005705;28;20046;-44
2022/12/03 10:53:03;;;;;;;34.28;20.20;;;2.40;99.90;;;;;;5011623;28;20147;-43
2022/12/03 10:55:37;;;;;;;37.00;22.30;;;2.40;99.90;;;;;;5001898;28;20116;-44
2022/12/03 10:58:03;;;;;;;35.03;22.73;;;2.40;99.90;;;;;;5015204;28;20061;-47
2022/12/03 11:00:29;;;;;;;33.83;22.23;;;2.40;99.90;;;;;;5014398;28;20049;-44
2022/12/03 11:02:54;;;;;;;31.45;20.88;;;2.40;99.90;;;;;;4995414;28;20052;-43
2022/12/03 11:05:25;;;;;;;33.50;22.33;;;2.40;99.90;;;;;;5001560;28;20053;-42
2022/12/03 11:07:51;;;;;;;32.92;21.50;;;2.40;99.90;;;;;;5001343;28;20977;-43
2022/12/03 11:10:18;;;;;;;37.53;22.33;;;2.40;99.90;;;;;;5007214;28;20060;-46
2022/12/03 11:13:21;;;;;;;35.95;21.52;;;2.40;99.90;;;;;;5008152;28;20491;-45
2022/12/03 11:15:47;;;;;;;36.35;21.85;;;2.40;99.90;;;;;;5004659;28;20041;-46
2022/12/03 11:18:36;;;;;;;47.17;31.45;;;2.40;99.90;;;;;;5005064;28;20097;-45
2022/12/03 11:21:08;;;;;;;84.00;49.50;;;2.50;99.90;;;;;;4995273;28;20052;-48
2022/12/03 11:23:43;;;;;;;93.88;55.95;;;2.50;99.90;;;;;;5004001;28;20894;-44
2022/12/03 11:26:13;;;;;;;132.55;79.95;;;2.50;99.90;;;;;;5055130;28;20052;-48
2022/12/03 11:28:45;;;;;;;162.18;93.55;;;2.50;99.90;;;;;;5057449;28;20076;-46
2022/12/03 11:31:44;;;;;;;35.10;22.98;;;2.50;99.90;;;;;;5057436;28;20051;-45
2022/12/03 11:34:18;;;;;;;38.05;22.42;;;2.50;99.90;;;;;;5003807;28;20053;-41
2022/12/03 11:37:08;;;;;;;35.88;21.02;;;2.50;99.90;;;;;;5035003;28;20044;-46
2022/12/03 11:39:49;;;;;;;37.13;21.75;;;2.50;99.90;;;;;;5010144;28;20241;-42
2022/12/03 11:42:26;;;;;;;33.55;20.15;;;2.60;99.90;;;;;;4985106;28;20045;-42
2022/12/03 11:45:04;;;;;;;35.45;20.80;;;2.60;99.90;;;;;;5010227;28;20239;-45
2022/12/03 11:47:58;;;;;;;35.47;20.85;;;2.60;99.90;;;;;;5008146;28;20470;-47
2022/12/03 11:50:31;;;;;;;33.55;20.48;;;2.60;99.90;;;;;;4926862;29;20242;-43
2022/12/03 11:53:06;;;;;;;35.53;22.33;;;2.50;99.90;;;;;;4919939;29;20190;-46
2022/12/03 11:55:36;;;;;;;34.40;20.55;;;2.50;99.90;;;;;;4917317;29;20087;-45
2022/12/03 11:58:26;;;;;;;33.78;20.92;;;2.50;99.90;;;;;;4916739;29;20087;-46
2022/12/03 12:00:54;;;;;;;35.63;21.75;;;2.50;99.90;;;;;;4875307;29;20056;-46
2022/12/03 12:03:25;;;;;;;34.08;21.15;;;2.50;99.90;;;;;;4878380;29;20377;-42
2022/12/03 12:06:06;;;;;;;40.42;22.50;;;2.40;99.90;;;;;;4878480;29;20053;-45
2022/12/03 12:08:38;;;;;;;36.53;21.73;;;2.40;99.90;;;;;;4878184;29;20064;-46
2022/12/03 12:11:14;;;;;;;37.78;22.67;;;2.40;99.90;;;;;;4903759;29;20047;-45
2022/12/03 12:13:40;;;;;;;37.33;22.00;;;2.40;99.90;;;;;;4896683;29;20542;-42
2022/12/03 12:16:07;;;;;;;34.80;22.85;;;2.30;99.90;;;;;;4892770;29;20046;-41
2022/12/03 12:18:35;;;;;;;35.67;21.58;;;2.30;99.90;;;;;;4905354;29;20063;-47
2022/12/03 12:21:41;;;;;;;39.67;22.33;;;2.30;99.90;;;;;;4899539;29;20229;-43
2022/12/03 12:24:46;;;;;;;35.22;22.40;;;2.40;99.90;;;;;;4899058;29;20498;-49
2022/12/03 12:27:15;;;;;;;36.80;22.40;;;2.40;99.90;;;;;;4942487;28;20057;-45
2022/12/03 12:29:44;;;;;;;38.35;23.30;;;2.30;99.90;;;;;;4992913;28;20050;-46
2022/12/03 12:32:13;;;;;;;36.53;22.25;;;2.30;99.90;;;;;;4992083;28;20219;-43
2022/12/03 12:34:42;;;;;;;37.72;21.48;;;2.30;99.90;;;;;;4992099;28;20316;-45
2022/12/03 12:37:16;;;;;;;32.88;21.23;;;2.30;99.90;;;;;;5004078;28;20553;-45
2022/12/03 12:39:41;;;;;;;38.90;23.77;;;2.30;99.90;;;;;;5055943;28;20143;-43
2022/12/03 12:42:28;;;;;;;61.67;39.13;;;2.20;99.90;;;;;;5054367;28;21271;-49
2022/12/03 12:45:17;;;;;;;130.40;72.68;;;2.30;99.90;;;;;;5056094;28;20040;-46
2022/12/03 12:47:48;;;;;;;385.65;217.52;;;2.20;99.90;;;;;;5053533;28;20060;-48
2022/12/03 12:50:17;;;;;;;38.80;23.17;;;2.30;99.90;;;;;;5054523;28;20156;-45
2022/12/03 12:52:52;;;;;;;37.65;23.67;;;2.20;99.90;;;;;;5053018;28;20049;-49
2022/12/03 12:55:19;;;;;;;33.97;20.92;;;2.20;99.90;;;;;;5054550;28;20082;-44
2022/12/03 12:57:45;;;;;;;37.83;22.42;;;2.20;99.90;;;;;;5055407;28;20051;-44
2022/12/03 13:00:20;;;;;;;38.85;22.45;;;2.20;99.90;;;;;;5068053;28;20087;-42
2022/12/03 13:02:59;;;;;;;37.47;22.70;;;2.20;99.90;;;;;;5055485;28;20045;-45
2022/12/03 13:05:32;;;;;;;36.88;21.88;;;2.20;99.90;;;;;;5054169;28;20508;-45